Granger, Iowa
Current Conditions -  °F | °C
As of 11:15 AM on Wednesday 26 Nov 2014 (Local Time) from KIKV Reporting Station
Light Snow Light Snow  
Wind Chill: -5°   Ceiling: Unl
Heat Index: -1°   Visibility: 1mi
Dew Point: -2°   Wind: 7mph
Humidity: 93%   Direction: 50°NE
Pressure: 29.97"   Gusts: NA
Location:  41.76°N, 93.82°W
Report Text: KIKV 261715Z AUTO 05006KT 1SM -SN SCT007 M01/M02 A2997 RMK AO2
Loading
Personal Weather Stations






























Interactive Weather Map New forecast layout! Learn more

10-Day Weather Forecast

Advertisements
Track Severe Weather on mobile